Startpagina
METAR-TAF:

METAR-TAF

Vliegvelden :

Aeropuerto Internacional de Maiquetía Simón Bolívar

Caracas, Venezuela

breedte: 10-36N, lengte: 066-59W, hoogte: 43 m

Actueel weer

Dit bericht is 38 minuten geleden gemaakt, om 16:02 UTC
Wind 14 kt uit het oosten
Temperatuur
Druk 1015 hPa

METAR: SVMI 141602Z AUTO 08014KT NCD ///// Q1015

Tijdstip: 12:40 (16:40 UTC)

Verwachting

Dit bericht is 6 uur en het 40 minuten geleden gemaakt, om 10:00 UTC
Verwachting geldig van 14 om 12 UTC tot 15 om 12 UTC
Wind kt uit het noorden
Zicht 10 km of meer
Verspreide wolken op 1600 ft
Wijzigt naar
van 14 om 12 UTC tot 14 om 16 UTC
Wind 6 kt uit het oosten
Verspreide wolken op 1600 ft
Verspreide wolken op 10000 ft

TAF: SVMI 141000Z 1412/1512 00000KT 9999 SCT016 TX34/18Z TN24/08Z BECMG 1412/1416 09006KT SCT016 SCT100

Waarnemingen en weersverwachtingen van meer dan 4000 vliegvelden (METAR en TAF).

De beschikbare stations zijn de gele en rode punten op de kaart.

Ga met uw muis naar het station om de naam te zien.

Klik dan om waarnemingen en weersverwachtingen te zien.

kaart wijzigen: klik op de groene knoppen met een zwart kruis om in te zoomen, op de groene knop met een streepje om uit te zoomen of op de groene pijlen voor aangrenzende kaarten.


METAR-TAF: